EST,Max TemperatureF,Mean TemperatureF,Min TemperatureF,Max Dew PointF,MeanDew PointF,Min DewpointF,Max Humidity, Mean Humidity, Min Humidity, Max Sea Level PressureIn, Mean Sea Level PressureIn, Min Sea Level PressureIn, Max VisibilityMiles, Mean VisibilityMiles, Min VisibilityMiles, Max Wind SpeedMPH, Mean Wind SpeedMPH, Max Gust SpeedMPH,PrecipitationIn, CloudCover, Events, WindDirDegrees
2011-12-1,44,38,30,30,22,18,70,54,34,30.23,30.06,29.79,10,10,10,12,7,21,0.00,1,,271
2011-12-2,39,32,26,28,25,19,86,74,56,30.44,30.29,30.22,10,10,10,7,1,,0.00,2,,266
2011-12-3,39,32,24,27,23,21,86,69,49,30.65,30.58,30.45,10,10,10,8,3,,0.00,0,,240
2011-12-4,48,36,24,34,28,21,93,77,50,30.58,30.44,30.32,10,10,8,13,2,23,0.00,1,,213
2011-12-5,48,40,32,41,36,30,93,87,71,30.32,30.25,30.15,10,7,0,7,2,,0.00,2,,247
2011-12-6,57,48,39,54,47,37,94,90,82,30.15,29.98,29.89,10,7,1,15,2,21,0.10,8,,234
2011-12-7,50,44,39,48,41,36,94,91,81,29.89,29.77,29.52,10,8,1,12,4,,0.34,8,,50
2011-12-8,39,34,30,37,24,16,93,66,41,30.18,29.81,29.38,10,10,2,25,8,37,0.41,4,,262
2011-12-9,41,36,30,27,24,21,75,62,45,30.28,30.21,30.14,10,10,10,15,8,22,0.00,2,,228
2011-12-10,37,30,23,28,19,10,75,59,38,30.37,30.21,30.10,10,10,10,13,7,22,0.00,4,,267
2011-12-11,33,26,19,16,14,12,86,60,41,30.55,30.49,30.37,10,10,10,12,3,,0.00,0,,225
2011-12-12,44,34,24,23,18,14,86,61,29,30.49,30.42,30.33,10,10,10,13,5,,0.00,0,,241
2011-12-13,46,34,21,28,23,18,93,70,39,30.33,30.30,30.26,10,10,10,8,3,,0.00,2,,255
2011-12-14,37,35,33,30,29,27,87,78,70,30.40,30.35,30.28,10,10,7,7,1,,0.00,8,,122
2011-12-15,48,42,35,43,35,28,93,81,70,30.27,29.96,29.64,10,9,3,13,7,21,0.02,8,,209
2011-12-16,44,38,33,32,26,23,70,56,46,30.02,29.92,29.71,10,10,10,22,13,38,0.00,4,,274
2011-12-17,33,25,17,28,15,7,86,60,40,30.14,30.05,29.96,10,10,7,15,5,23,0.00,2,,287
2011-12-18,24,17,10,9,3,-6,79,55,26,30.24,30.19,30.13,10,10,10,9,2,,0.00,1,,262
2011-12-19,41,26,10,28,14,3,79,63,48,30.20,29.95,29.74,10,10,10,13,4,17,0.00,5,,237
2011-12-20,41,28,15,34,14,5,79,56,34,30.17,30.06,29.76,10,10,10,13,7,25,0.00,2,,280
2011-12-21,33,24,15,32,24,12,93,87,69,30.17,29.93,29.64,10,6,2,5,0,,0.17,7,,252
2011-12-22,48,40,33,43,33,30,100,78,50,30.05,29.88,29.57,10,8,2,14,5,22,0.00,4,,266
2011-12-23,39,32,24,36,27,10,93,78,51,30.17,29.98,29.88,10,7,2,15,4,29,0.17,6,,317
2011-12-24,26,19,12,12,5,-2,79,55,31,30.45,30.35,30.16,10,10,10,10,6,17,0.00,0,,272
2011-12-25,24,17,10,21,14,7,86,81,73,30.45,30.17,29.84,10,9,2,8,4,,0.00,7,,76
2011-12-26,33,27,21,25,19,16,93,71,51,30.19,30.02,29.81,10,10,4,17,4,28,0.00,3,,266
2011-12-27,50,34,21,46,27,18,93,82,70,30.10,29.82,29.25,10,9,3,18,5,30,0.22,3,,254
2011-12-28,53,37,21,52,29,9,94,69,53,29.53,29.30,29.18,10,10,5,24,13,39,0.01,7,,250
2011-12-29,26,20,15,9,0,-8,63,42,22,29.97,29.80,29.54,10,10,10,21,12,29,0.00,1,,264
2011-12-30,28,22,17,21,15,3,80,70,49,30.10,30.05,29.97,10,9,2,10,4,,0.00,7,,53
2011-12-31,37,32,28,36,30,23,100,90,80,30.06,29.90,29.80,10,6,0,12,7,,0.00,7,,16